sensor_id;sensor_type;location;lat;lon;timestamp;P1;durP1;ratioP1;P2;durP2;ratioP2
32228;SDS011;18717;48.034;11.186;2023-07-08T00:00:46;19.25;;;17.30;;
32228;SDS011;18717;48.034;11.186;2023-07-08T00:03:15;19.65;;;17.75;;
32228;SDS011;18717;48.034;11.186;2023-07-08T00:09:35;19.35;;;17.35;;
32228;SDS011;18717;48.034;11.186;2023-07-08T00:12:20;19.92;;;17.92;;
32228;SDS011;18717;48.034;11.186;2023-07-08T00:15:06;22.13;;;17.60;;
32228;SDS011;18717;48.034;11.186;2023-07-08T00:17:44;21.08;;;17.98;;
32228;SDS011;18717;48.034;11.186;2023-07-08T00:23:39;20.20;;;18.10;;
32228;SDS011;18717;48.034;11.186;2023-07-08T00:37:19;18.85;;;17.05;;
32228;SDS011;18717;48.034;11.186;2023-07-08T00:43:49;19.42;;;17.38;;
32228;SDS011;18717;48.034;11.186;2023-07-08T00:49:58;19.75;;;17.58;;
32228;SDS011;18717;48.034;11.186;2023-07-08T00:52:33;18.00;;;16.20;;
32228;SDS011;18717;48.034;11.186;2023-07-08T00:55:01;20.42;;;17.17;;
32228;SDS011;18717;48.034;11.186;2023-07-08T00:57:33;22.77;;;17.30;;
32228;SDS011;18717;48.034;11.186;2023-07-08T01:07:38;19.08;;;15.95;;
32228;SDS011;18717;48.034;11.186;2023-07-08T01:10:09;20.67;;;17.25;;
32228;SDS011;18717;48.034;11.186;2023-07-08T01:12:40;18.90;;;17.00;;
32228;SDS011;18717;48.034;11.186;2023-07-08T01:15:10;19.30;;;17.40;;
32228;SDS011;18717;48.034;11.186;2023-07-08T01:17:39;18.17;;;16.40;;
32228;SDS011;18717;48.034;11.186;2023-07-08T01:20:07;20.30;;;17.40;;
32228;SDS011;18717;48.034;11.186;2023-07-08T01:22:41;20.35;;;17.38;;
32228;SDS011;18717;48.034;11.186;2023-07-08T01:28:50;19.30;;;16.55;;
32228;SDS011;18717;48.034;11.186;2023-07-08T01:31:18;18.17;;;16.48;;
32228;SDS011;18717;48.034;11.186;2023-07-08T01:33:47;18.52;;;16.75;;
32228;SDS011;18717;48.034;11.186;2023-07-08T01:36:18;18.85;;;16.80;;
32228;SDS011;18717;48.034;11.186;2023-07-08T03:40:07;18.83;;;16.20;;
32228;SDS011;18717;48.034;11.186;2023-07-08T03:42:36;22.33;;;17.10;;
32228;SDS011;18717;48.034;11.186;2023-07-08T03:45:14;19.50;;;16.80;;
32228;SDS011;18717;48.034;11.186;2023-07-08T03:47:42;17.95;;;16.05;;
32228;SDS011;18717;48.034;11.186;2023-07-08T03:50:11;18.00;;;16.25;;
32228;SDS011;18717;48.034;11.186;2023-07-08T03:52:44;19.25;;;17.17;;
32228;SDS011;18717;48.034;11.186;2023-07-08T03:55:14;19.05;;;16.70;;
32228;SDS011;18717;48.034;11.186;2023-07-08T03:57:42;19.08;;;17.17;;
32228;SDS011;18717;48.034;11.186;2023-07-08T04:00:10;19.63;;;17.45;;
32228;SDS011;18717;48.034;11.186;2023-07-08T04:02:39;17.92;;;16.00;;
32228;SDS011;18717;48.034;11.186;2023-07-08T04:05:08;18.60;;;16.70;;
32228;SDS011;18717;48.034;11.186;2023-07-08T04:07:38;20.30;;;17.05;;
32228;SDS011;18717;48.034;11.186;2023-07-08T04:10:06;17.63;;;15.93;;
32228;SDS011;18717;48.034;11.186;2023-07-08T04:12:36;19.70;;;16.35;;
32228;SDS011;18717;48.034;11.186;2023-07-08T04:15:05;19.00;;;16.85;;
32228;SDS011;18717;48.034;11.186;2023-07-08T04:17:34;17.77;;;16.08;;
32228;SDS011;18717;48.034;11.186;2023-07-08T04:20:03;19.30;;;17.17;;
32228;SDS011;18717;48.034;11.186;2023-07-08T04:22:31;20.92;;;16.77;;
32228;SDS011;18717;48.034;11.186;2023-07-08T04:24:59;19.13;;;17.10;;
32228;SDS011;18717;48.034;11.186;2023-07-08T04:27:27;18.45;;;16.55;;
32228;SDS011;18717;48.034;11.186;2023-07-08T04:29:56;19.40;;;16.70;;
32228;SDS011;18717;48.034;11.186;2023-07-08T04:32:24;19.23;;;17.05;;
32228;SDS011;18717;48.034;11.186;2023-07-08T04:34:52;18.50;;;16.70;;
32228;SDS011;18717;48.034;11.186;2023-07-08T04:37:20;19.75;;;16.73;;
32228;SDS011;18717;48.034;11.186;2023-07-08T04:39:48;18.55;;;16.42;;
32228;SDS011;18717;48.034;11.186;2023-07-08T04:42:16;19.00;;;16.55;;
32228;SDS011;18717;48.034;11.186;2023-07-08T04:44:44;21.70;;;16.67;;
32228;SDS011;18717;48.034;11.186;2023-07-08T04:47:13;18.48;;;16.48;;
32228;SDS011;18717;48.034;11.186;2023-07-08T04:49:41;19.95;;;16.40;;
32228;SDS011;18717;48.034;11.186;2023-07-08T04:52:10;19.13;;;17.13;;
32228;SDS011;18717;48.034;11.186;2023-07-08T04:54:38;19.20;;;16.63;;
32228;SDS011;18717;48.034;11.186;2023-07-08T04:57:07;21.80;;;17.50;;
32228;SDS011;18717;48.034;11.186;2023-07-08T04:59:35;19.45;;;17.38;;
32228;SDS011;18717;48.034;11.186;2023-07-08T05:02:03;20.15;;;17.23;;
32228;SDS011;18717;48.034;11.186;2023-07-08T05:04:34;18.85;;;16.80;;
32228;SDS011;18717;48.034;11.186;2023-07-08T05:07:02;19.38;;;17.40;;
32228;SDS011;18717;48.034;11.186;2023-07-08T05:09:30;18.73;;;16.88;;
32228;SDS011;18717;48.034;11.186;2023-07-08T05:11:58;18.67;;;16.70;;
32228;SDS011;18717;48.034;11.186;2023-07-08T05:14:26;20.50;;;17.40;;
32228;SDS011;18717;48.034;11.186;2023-07-08T05:16:55;18.42;;;16.48;;
32228;SDS011;18717;48.034;11.186;2023-07-08T05:19:24;20.65;;;18.30;;
32228;SDS011;18717;48.034;11.186;2023-07-08T05:21:53;19.45;;;17.40;;
32228;SDS011;18717;48.034;11.186;2023-07-08T05:24:21;19.33;;;17.42;;
32228;SDS011;18717;48.034;11.186;2023-07-08T05:26:50;19.63;;;16.58;;
32228;SDS011;18717;48.034;11.186;2023-07-08T05:29:20;19.95;;;17.90;;
32228;SDS011;18717;48.034;11.186;2023-07-08T05:31:48;19.67;;;17.60;;
32228;SDS011;18717;48.034;11.186;2023-07-08T05:34:16;20.58;;;16.92;;
32228;SDS011;18717;48.034;11.186;2023-07-08T05:36:44;19.50;;;17.50;;
32228;SDS011;18717;48.034;11.186;2023-07-08T05:39:13;19.00;;;16.98;;
32228;SDS011;18717;48.034;11.186;2023-07-08T05:41:41;19.88;;;17.67;;
32228;SDS011;18717;48.034;11.186;2023-07-08T05:44:09;20.40;;;17.20;;
32228;SDS011;18717;48.034;11.186;2023-07-08T05:46:37;21.15;;;18.95;;
32228;SDS011;18717;48.034;11.186;2023-07-08T05:49:05;20.27;;;18.08;;
32228;SDS011;18717;48.034;11.186;2023-07-08T05:51:33;19.65;;;17.55;;
32228;SDS011;18717;48.034;11.186;2023-07-08T05:54:01;19.05;;;17.02;;
32228;SDS011;18717;48.034;11.186;2023-07-08T05:56:31;19.08;;;17.15;;
32228;SDS011;18717;48.034;11.186;2023-07-08T05:59:01;18.58;;;16.75;;
32228;SDS011;18717;48.034;11.186;2023-07-08T06:01:29;18.85;;;17.05;;
32228;SDS011;18717;48.034;11.186;2023-07-08T06:03:58;19.42;;;17.20;;
32228;SDS011;18717;48.034;11.186;2023-07-08T06:06:27;20.52;;;17.20;;
32228;SDS011;18717;48.034;11.186;2023-07-08T06:08:55;20.15;;;18.08;;
32228;SDS011;18717;48.034;11.186;2023-07-08T06:11:23;19.92;;;17.95;;
32228;SDS011;18717;48.034;11.186;2023-07-08T06:13:53;20.55;;;17.58;;
32228;SDS011;18717;48.034;11.186;2023-07-08T06:16:21;20.00;;;17.90;;
32228;SDS011;18717;48.034;11.186;2023-07-08T06:19:06;20.92;;;18.48;;
32228;SDS011;18717;48.034;11.186;2023-07-08T06:24:39;18.48;;;16.50;;
32228;SDS011;18717;48.034;11.186;2023-07-08T06:27:07;22.27;;;19.08;;
32228;SDS011;18717;48.034;11.186;2023-07-08T06:29:36;18.83;;;16.88;;
32228;SDS011;18717;48.034;11.186;2023-07-08T06:32:05;20.13;;;17.58;;
32228;SDS011;18717;48.034;11.186;2023-07-08T06:34:34;19.40;;;17.45;;
32228;SDS011;18717;48.034;11.186;2023-07-08T06:37:02;19.33;;;17.55;;
32228;SDS011;18717;48.034;11.186;2023-07-08T06:39:31;19.25;;;17.38;;
32228;SDS011;18717;48.034;11.186;2023-07-08T06:41:59;20.40;;;18.10;;
32228;SDS011;18717;48.034;11.186;2023-07-08T06:44:27;19.25;;;17.48;;
32228;SDS011;18717;48.034;11.186;2023-07-08T06:46:56;19.92;;;17.80;;
32228;SDS011;18717;48.034;11.186;2023-07-08T06:49:24;19.20;;;17.27;;
32228;SDS011;18717;48.034;11.186;2023-07-08T06:51:52;19.58;;;17.67;;
32228;SDS011;18717;48.034;11.186;2023-07-08T06:58:29;20.52;;;18.45;;
32228;SDS011;18717;48.034;11.186;2023-07-08T07:23:28;20.02;;;17.83;;
32228;SDS011;18717;48.034;11.186;2023-07-08T07:25:56;20.50;;;18.60;;
32228;SDS011;18717;48.034;11.186;2023-07-08T07:28:24;20.50;;;17.23;;
32228;SDS011;18717;48.034;11.186;2023-07-08T07:30:55;18.77;;;17.00;;
32228;SDS011;18717;48.034;11.186;2023-07-08T07:33:24;21.25;;;17.63;;
32228;SDS011;18717;48.034;11.186;2023-07-08T07:35:52;18.20;;;16.50;;
32228;SDS011;18717;48.034;11.186;2023-07-08T07:38:21;18.85;;;16.95;;
32228;SDS011;18717;48.034;11.186;2023-07-08T07:40:52;18.70;;;16.60;;
32228;SDS011;18717;48.034;11.186;2023-07-08T07:43:19;19.15;;;17.20;;
32228;SDS011;18717;48.034;11.186;2023-07-08T07:45:49;19.38;;;17.55;;
32228;SDS011;18717;48.034;11.186;2023-07-08T07:48:17;19.10;;;17.05;;
32228;SDS011;18717;48.034;11.186;2023-07-08T07:50:45;20.15;;;18.13;;
32228;SDS011;18717;48.034;11.186;2023-07-08T07:53:13;19.17;;;17.42;;
32228;SDS011;18717;48.034;11.186;2023-07-08T07:55:42;20.63;;;18.02;;
32228;SDS011;18717;48.034;11.186;2023-07-08T07:58:10;21.77;;;17.48;;
32228;SDS011;18717;48.034;11.186;2023-07-08T08:00:38;21.40;;;16.98;;
32228;SDS011;18717;48.034;11.186;2023-07-08T08:03:05;19.15;;;17.25;;
32228;SDS011;18717;48.034;11.186;2023-07-08T08:05:33;19.48;;;17.67;;
32228;SDS011;18717;48.034;11.186;2023-07-08T08:08:01;19.17;;;17.15;;
32228;SDS011;18717;48.034;11.186;2023-07-08T08:10:30;18.58;;;16.77;;
32228;SDS011;18717;48.034;11.186;2023-07-08T08:13:00;19.27;;;17.48;;
32228;SDS011;18717;48.034;11.186;2023-07-08T08:15:28;20.85;;;18.67;;
32228;SDS011;18717;48.034;11.186;2023-07-08T08:17:55;20.65;;;18.75;;
32228;SDS011;18717;48.034;11.186;2023-07-08T08:20:24;19.27;;;17.35;;
32228;SDS011;18717;48.034;11.186;2023-07-08T08:22:52;21.40;;;19.20;;
32228;SDS011;18717;48.034;11.186;2023-07-08T08:25:20;18.38;;;16.83;;
32228;SDS011;18717;48.034;11.186;2023-07-08T08:27:51;21.00;;;18.85;;
32228;SDS011;18717;48.034;11.186;2023-07-08T08:30:20;20.85;;;19.05;;
32228;SDS011;18717;48.034;11.186;2023-07-08T08:32:48;21.67;;;19.58;;
32228;SDS011;18717;48.034;11.186;2023-07-08T08:35:16;19.85;;;17.95;;
32228;SDS011;18717;48.034;11.186;2023-07-08T08:37:44;21.40;;;18.17;;
32228;SDS011;18717;48.034;11.186;2023-07-08T08:40:13;19.30;;;17.38;;
32228;SDS011;18717;48.034;11.186;2023-07-08T08:42:50;21.40;;;19.30;;
32228;SDS011;18717;48.034;11.186;2023-07-08T08:45:20;20.08;;;18.08;;
32228;SDS011;18717;48.034;11.186;2023-07-08T08:47:52;20.85;;;18.92;;
32228;SDS011;18717;48.034;11.186;2023-07-08T08:50:25;20.77;;;18.73;;
32228;SDS011;18717;48.034;11.186;2023-07-08T08:52:56;21.63;;;19.45;;
32228;SDS011;18717;48.034;11.186;2023-07-08T08:55:25;19.63;;;17.60;;
32228;SDS011;18717;48.034;11.186;2023-07-08T08:57:54;19.90;;;18.10;;
32228;SDS011;18717;48.034;11.186;2023-07-08T09:00:29;20.92;;;18.90;;
32228;SDS011;18717;48.034;11.186;2023-07-08T09:03:03;18.90;;;17.17;;
32228;SDS011;18717;48.034;11.186;2023-07-08T09:05:35;19.75;;;17.52;;
32228;SDS011;18717;48.034;11.186;2023-07-08T09:08:04;18.83;;;17.00;;
32228;SDS011;18717;48.034;11.186;2023-07-08T09:10:40;18.52;;;16.92;;
32228;SDS011;18717;48.034;11.186;2023-07-08T09:13:14;22.42;;;18.48;;
32228;SDS011;18717;48.034;11.186;2023-07-08T09:15:46;18.67;;;17.08;;
32228;SDS011;18717;48.034;11.186;2023-07-08T09:18:17;19.70;;;17.90;;
32228;SDS011;18717;48.034;11.186;2023-07-08T09:20:48;18.40;;;16.70;;
32228;SDS011;18717;48.034;11.186;2023-07-08T09:23:17;19.38;;;17.63;;
32228;SDS011;18717;48.034;11.186;2023-07-08T09:25:49;17.63;;;16.08;;
32228;SDS011;18717;48.034;11.186;2023-07-08T09:28:19;20.75;;;18.38;;
32228;SDS011;18717;48.034;11.186;2023-07-08T09:30:51;18.58;;;16.98;;
32228;SDS011;18717;48.034;11.186;2023-07-08T09:33:21;18.88;;;16.95;;
32228;SDS011;18717;48.034;11.186;2023-07-08T09:36:00;19.10;;;16.67;;
32228;SDS011;18717;48.034;11.186;2023-07-08T09:38:49;17.90;;;16.40;;
32228;SDS011;18717;48.034;11.186;2023-07-08T09:41:28;19.98;;;18.08;;
32228;SDS011;18717;48.034;11.186;2023-07-08T09:50:55;18.48;;;16.80;;
32228;SDS011;18717;48.034;11.186;2023-07-08T09:56:54;18.70;;;17.20;;
32228;SDS011;18717;48.034;11.186;2023-07-08T09:59:28;17.95;;;16.60;;
32228;SDS011;18717;48.034;11.186;2023-07-08T10:02:20;18.83;;;17.02;;
32228;SDS011;18717;48.034;11.186;2023-07-08T10:04:53;18.55;;;16.17;;
32228;SDS011;18717;48.034;11.186;2023-07-08T10:07:27;18.40;;;16.50;;
32228;SDS011;18717;48.034;11.186;2023-07-08T10:09:56;17.45;;;15.70;;
32228;SDS011;18717;48.034;11.186;2023-07-08T10:12:27;17.15;;;15.75;;
32228;SDS011;18717;48.034;11.186;2023-07-08T10:14:59;17.60;;;16.15;;
32228;SDS011;18717;48.034;11.186;2023-07-08T10:17:40;17.42;;;15.77;;
32228;SDS011;18717;48.034;11.186;2023-07-08T10:20:10;17.42;;;16.10;;
32228;SDS011;18717;48.034;11.186;2023-07-08T10:22:47;17.92;;;16.08;;
32228;SDS011;18717;48.034;11.186;2023-07-08T10:25:43;17.25;;;15.90;;
32228;SDS011;18717;48.034;11.186;2023-07-08T10:28:20;17.92;;;16.48;;
32228;SDS011;18717;48.034;11.186;2023-07-08T10:30:55;17.75;;;16.13;;
32228;SDS011;18717;48.034;11.186;2023-07-08T10:36:20;18.33;;;16.58;;
32228;SDS011;18717;48.034;11.186;2023-07-08T10:38:56;18.35;;;16.63;;
32228;SDS011;18717;48.034;11.186;2023-07-08T10:41:40;16.53;;;15.43;;
32228;SDS011;18717;48.034;11.186;2023-07-08T10:44:24;16.17;;;14.98;;
32228;SDS011;18717;48.034;11.186;2023-07-08T10:46:58;17.17;;;15.40;;
32228;SDS011;18717;48.034;11.186;2023-07-08T10:49:35;16.55;;;14.98;;
32228;SDS011;18717;48.034;11.186;2023-07-08T10:52:20;17.95;;;16.52;;
32228;SDS011;18717;48.034;11.186;2023-07-08T10:55:01;16.45;;;15.10;;
32228;SDS011;18717;48.034;11.186;2023-07-08T10:57:40;17.55;;;16.08;;
32228;SDS011;18717;48.034;11.186;2023-07-08T11:00:20;15.80;;;14.60;;
32228;SDS011;18717;48.034;11.186;2023-07-08T11:03:03;16.65;;;15.45;;
32228;SDS011;18717;48.034;11.186;2023-07-08T11:05:40;16.65;;;15.10;;
32228;SDS011;18717;48.034;11.186;2023-07-08T11:08:11;17.25;;;15.75;;
32228;SDS011;18717;48.034;11.186;2023-07-08T11:10:46;17.33;;;16.05;;
32228;SDS011;18717;48.034;11.186;2023-07-08T11:13:25;17.40;;;15.85;;
32228;SDS011;18717;48.034;11.186;2023-07-08T11:15:56;16.85;;;15.30;;
32228;SDS011;18717;48.034;11.186;2023-07-08T11:18:28;15.70;;;14.73;;
32228;SDS011;18717;48.034;11.186;2023-07-08T11:21:02;16.70;;;15.27;;
32228;SDS011;18717;48.034;11.186;2023-07-08T11:23:36;16.55;;;15.43;;
32228;SDS011;18717;48.034;11.186;2023-07-08T11:26:09;16.83;;;15.60;;
32228;SDS011;18717;48.034;11.186;2023-07-08T11:28:42;16.52;;;15.32;;
32228;SDS011;18717;48.034;11.186;2023-07-08T11:31:10;15.93;;;14.82;;
32228;SDS011;18717;48.034;11.186;2023-07-08T11:33:39;17.73;;;16.15;;
32228;SDS011;18717;48.034;11.186;2023-07-08T11:36:07;17.00;;;15.70;;
32228;SDS011;18717;48.034;11.186;2023-07-08T11:38:36;16.05;;;14.85;;
32228;SDS011;18717;48.034;11.186;2023-07-08T11:41:11;17.27;;;15.77;;
32228;SDS011;18717;48.034;11.186;2023-07-08T11:43:42;18.77;;;15.52;;
32228;SDS011;18717;48.034;11.186;2023-07-08T11:46:14;16.25;;;15.00;;
32228;SDS011;18717;48.034;11.186;2023-07-08T11:48:43;15.77;;;14.63;;
32228;SDS011;18717;48.034;11.186;2023-07-08T11:51:19;16.90;;;15.80;;
32228;SDS011;18717;48.034;11.186;2023-07-08T11:53:50;18.38;;;16.70;;
32228;SDS011;18717;48.034;11.186;2023-07-08T11:56:21;16.58;;;15.48;;
32228;SDS011;18717;48.034;11.186;2023-07-08T11:58:58;17.15;;;15.65;;
32228;SDS011;18717;48.034;11.186;2023-07-08T12:01:32;17.30;;;15.60;;
32228;SDS011;18717;48.034;11.186;2023-07-08T12:04:16;17.45;;;15.95;;
32228;SDS011;18717;48.034;11.186;2023-07-08T12:07:02;17.00;;;15.90;;
32228;SDS011;18717;48.034;11.186;2023-07-08T12:09:43;15.95;;;14.65;;
32228;SDS011;18717;48.034;11.186;2023-07-08T12:12:16;16.52;;;15.20;;
32228;SDS011;18717;48.034;11.186;2023-07-08T12:14:47;15.98;;;14.88;;
32228;SDS011;18717;48.034;11.186;2023-07-08T12:17:15;17.00;;;15.63;;
32228;SDS011;18717;48.034;11.186;2023-07-08T12:19:43;16.70;;;15.27;;
32228;SDS011;18717;48.034;11.186;2023-07-08T12:22:11;16.98;;;15.43;;
32228;SDS011;18717;48.034;11.186;2023-07-08T12:24:39;16.50;;;15.10;;
32228;SDS011;18717;48.034;11.186;2023-07-08T12:27:08;16.98;;;15.73;;
32228;SDS011;18717;48.034;11.186;2023-07-08T12:32:10;16.73;;;15.40;;
32228;SDS011;18717;48.034;11.186;2023-07-08T12:34:39;15.93;;;14.93;;
32228;SDS011;18717;48.034;11.186;2023-07-08T12:37:10;16.10;;;14.82;;
32228;SDS011;18717;48.034;11.186;2023-07-08T12:39:38;15.98;;;14.68;;
32228;SDS011;18717;48.034;11.186;2023-07-08T12:42:08;16.40;;;15.20;;
32228;SDS011;18717;48.034;11.186;2023-07-08T12:44:38;17.63;;;16.20;;
32228;SDS011;18717;48.034;11.186;2023-07-08T12:47:10;15.75;;;14.55;;
32228;SDS011;18717;48.034;11.186;2023-07-08T12:49:38;16.77;;;15.10;;
32228;SDS011;18717;48.034;11.186;2023-07-08T12:52:05;16.15;;;14.80;;
32228;SDS011;18717;48.034;11.186;2023-07-08T12:54:33;16.42;;;15.20;;
32228;SDS011;18717;48.034;11.186;2023-07-08T12:57:01;16.38;;;14.98;;
32228;SDS011;18717;48.034;11.186;2023-07-08T12:59:29;16.75;;;15.43;;
32228;SDS011;18717;48.034;11.186;2023-07-08T13:01:58;17.15;;;15.73;;
32228;SDS011;18717;48.034;11.186;2023-07-08T13:04:26;16.73;;;15.18;;
32228;SDS011;18717;48.034;11.186;2023-07-08T13:06:54;17.38;;;16.00;;
32228;SDS011;18717;48.034;11.186;2023-07-08T13:12:12;17.95;;;16.65;;
32228;SDS011;18717;48.034;11.186;2023-07-08T13:14:41;17.17;;;15.67;;
32228;SDS011;18717;48.034;11.186;2023-07-08T13:17:12;16.65;;;15.48;;
32228;SDS011;18717;48.034;11.186;2023-07-08T13:19:41;17.23;;;15.70;;
32228;SDS011;18717;48.034;11.186;2023-07-08T13:22:10;16.92;;;15.35;;
32228;SDS011;18717;48.034;11.186;2023-07-08T13:24:40;16.60;;;15.30;;
32228;SDS011;18717;48.034;11.186;2023-07-08T13:27:08;18.80;;;16.85;;
32228;SDS011;18717;48.034;11.186;2023-07-08T13:29:41;17.27;;;15.70;;
32228;SDS011;18717;48.034;11.186;2023-07-08T13:32:09;16.52;;;15.40;;
32228;SDS011;18717;48.034;11.186;2023-07-08T13:34:39;18.00;;;16.40;;
32228;SDS011;18717;48.034;11.186;2023-07-08T13:37:09;17.05;;;15.60;;
32228;SDS011;18717;48.034;11.186;2023-07-08T13:39:37;17.70;;;16.23;;
32228;SDS011;18717;48.034;11.186;2023-07-08T13:42:06;17.35;;;15.88;;
32228;SDS011;18717;48.034;11.186;2023-07-08T13:44:40;17.33;;;16.13;;
32228;SDS011;18717;48.034;11.186;2023-07-08T13:47:20;16.35;;;15.27;;
32228;SDS011;18717;48.034;11.186;2023-07-08T13:49:53;16.40;;;15.25;;
32228;SDS011;18717;48.034;11.186;2023-07-08T13:52:25;18.40;;;17.00;;
32228;SDS011;18717;48.034;11.186;2023-07-08T13:54:54;17.52;;;16.23;;
32228;SDS011;18717;48.034;11.186;2023-07-08T13:57:28;17.92;;;16.42;;
32228;SDS011;18717;48.034;11.186;2023-07-08T13:59:58;17.60;;;16.20;;
32228;SDS011;18717;48.034;11.186;2023-07-08T14:02:27;16.67;;;15.07;;
32228;SDS011;18717;48.034;11.186;2023-07-08T14:04:58;16.08;;;14.88;;
32228;SDS011;18717;48.034;11.186;2023-07-08T14:07:32;17.83;;;16.40;;
32228;SDS011;18717;48.034;11.186;2023-07-08T14:10:00;16.63;;;15.43;;
32228;SDS011;18717;48.034;11.186;2023-07-08T14:12:27;16.88;;;15.68;;
32228;SDS011;18717;48.034;11.186;2023-07-08T14:14:55;18.65;;;17.13;;
32228;SDS011;18717;48.034;11.186;2023-07-08T14:17:24;17.25;;;15.80;;
32228;SDS011;18717;48.034;11.186;2023-07-08T14:19:53;17.42;;;15.88;;
32228;SDS011;18717;48.034;11.186;2023-07-08T14:22:23;17.15;;;15.68;;
32228;SDS011;18717;48.034;11.186;2023-07-08T14:24:52;17.83;;;16.37;;
32228;SDS011;18717;48.034;11.186;2023-07-08T14:27:20;17.05;;;15.75;;
32228;SDS011;18717;48.034;11.186;2023-07-08T14:29:49;17.95;;;16.33;;
32228;SDS011;18717;48.034;11.186;2023-07-08T14:32:18;18.45;;;16.77;;
32228;SDS011;18717;48.034;11.186;2023-07-08T14:34:49;17.93;;;16.23;;
32228;SDS011;18717;48.034;11.186;2023-07-08T14:37:19;16.80;;;15.23;;
32228;SDS011;18717;48.034;11.186;2023-07-08T14:39:48;18.38;;;16.88;;
32228;SDS011;18717;48.034;11.186;2023-07-08T14:42:18;18.25;;;15.75;;
32228;SDS011;18717;48.034;11.186;2023-07-08T14:44:47;16.77;;;15.60;;
32228;SDS011;18717;48.034;11.186;2023-07-08T14:47:16;16.25;;;14.85;;
32228;SDS011;18717;48.034;11.186;2023-07-08T14:49:45;16.85;;;15.25;;
32228;SDS011;18717;48.034;11.186;2023-07-08T14:52:13;16.90;;;15.52;;
32228;SDS011;18717;48.034;11.186;2023-07-08T14:54:41;16.50;;;15.30;;
32228;SDS011;18717;48.034;11.186;2023-07-08T14:57:10;17.60;;;16.30;;
32228;SDS011;18717;48.034;11.186;2023-07-08T14:59:42;16.23;;;14.85;;
32228;SDS011;18717;48.034;11.186;2023-07-08T15:02:15;17.15;;;15.93;;
32228;SDS011;18717;48.034;11.186;2023-07-08T15:04:45;16.95;;;15.75;;
32228;SDS011;18717;48.034;11.186;2023-07-08T15:07:13;16.48;;;15.23;;
32228;SDS011;18717;48.034;11.186;2023-07-08T15:09:41;17.42;;;15.88;;
32228;SDS011;18717;48.034;11.186;2023-07-08T15:12:10;17.35;;;15.63;;
32228;SDS011;18717;48.034;11.186;2023-07-08T15:14:39;16.65;;;15.52;;
32228;SDS011;18717;48.034;11.186;2023-07-08T15:17:09;17.08;;;15.80;;
32228;SDS011;18717;48.034;11.186;2023-07-08T15:19:40;16.63;;;15.32;;
32228;SDS011;18717;48.034;11.186;2023-07-08T15:22:08;17.00;;;15.38;;
32228;SDS011;18717;48.034;11.186;2023-07-08T15:24:36;16.50;;;15.20;;
32228;SDS011;18717;48.034;11.186;2023-07-08T15:27:03;16.52;;;15.18;;
32228;SDS011;18717;48.034;11.186;2023-07-08T15:29:34;16.90;;;15.70;;
32228;SDS011;18717;48.034;11.186;2023-07-08T15:32:02;16.33;;;14.93;;
32228;SDS011;18717;48.034;11.186;2023-07-08T15:34:47;16.77;;;15.48;;
32228;SDS011;18717;48.034;11.186;2023-07-08T15:37:14;17.17;;;15.68;;
32228;SDS011;18717;48.034;11.186;2023-07-08T15:39:42;15.88;;;14.70;;
32228;SDS011;18717;48.034;11.186;2023-07-08T15:42:10;17.58;;;16.27;;
32228;SDS011;18717;48.034;11.186;2023-07-08T15:44:40;16.52;;;15.27;;
32228;SDS011;18717;48.034;11.186;2023-07-08T15:47:09;17.75;;;16.17;;
32228;SDS011;18717;48.034;11.186;2023-07-08T15:49:39;15.88;;;14.68;;
32228;SDS011;18717;48.034;11.186;2023-07-08T15:52:07;16.95;;;15.68;;
32228;SDS011;18717;48.034;11.186;2023-07-08T15:54:36;16.40;;;15.20;;
32228;SDS011;18717;48.034;11.186;2023-07-08T15:57:05;17.48;;;15.98;;
32228;SDS011;18717;48.034;11.186;2023-07-08T15:59:34;16.55;;;15.18;;
32228;SDS011;18717;48.034;11.186;2023-07-08T16:04:52;17.25;;;15.52;;
32228;SDS011;18717;48.034;11.186;2023-07-08T16:07:20;17.63;;;15.55;;
32228;SDS011;18717;48.034;11.186;2023-07-08T16:09:48;16.52;;;15.13;;
32228;SDS011;18717;48.034;11.186;2023-07-08T16:12:16;16.83;;;15.50;;
32228;SDS011;18717;48.034;11.186;2023-07-08T16:14:47;16.88;;;15.57;;
32228;SDS011;18717;48.034;11.186;2023-07-08T16:17:15;16.30;;;14.73;;
32228;SDS011;18717;48.034;11.186;2023-07-08T16:19:44;16.40;;;15.10;;
32228;SDS011;18717;48.034;11.186;2023-07-08T16:22:12;16.52;;;15.23;;
32228;SDS011;18717;48.034;11.186;2023-07-08T16:24:39;16.60;;;15.25;;
32228;SDS011;18717;48.034;11.186;2023-07-08T16:27:07;16.73;;;15.00;;
32228;SDS011;18717;48.034;11.186;2023-07-08T16:29:39;16.23;;;14.80;;
32228;SDS011;18717;48.034;11.186;2023-07-08T16:32:08;17.00;;;15.50;;
32228;SDS011;18717;48.034;11.186;2023-07-08T16:34:38;17.53;;;15.77;;
32228;SDS011;18717;48.034;11.186;2023-07-08T16:37:07;17.25;;;15.48;;
32228;SDS011;18717;48.034;11.186;2023-07-08T16:39:35;16.80;;;15.15;;
32228;SDS011;18717;48.034;11.186;2023-07-08T16:42:03;16.35;;;15.10;;
32228;SDS011;18717;48.034;11.186;2023-07-08T16:44:31;16.35;;;14.98;;
32228;SDS011;18717;48.034;11.186;2023-07-08T16:46:58;17.08;;;15.57;;
32228;SDS011;18717;48.034;11.186;2023-07-08T16:49:27;16.55;;;15.10;;
32228;SDS011;18717;48.034;11.186;2023-07-08T16:51:54;15.68;;;14.23;;
32228;SDS011;18717;48.034;11.186;2023-07-08T16:54:24;17.05;;;15.48;;
32228;SDS011;18717;48.034;11.186;2023-07-08T16:56:52;16.70;;;15.40;;
32228;SDS011;18717;48.034;11.186;2023-07-08T16:59:20;18.23;;;15.63;;
32228;SDS011;18717;48.034;11.186;2023-07-08T17:01:48;15.80;;;14.80;;
32228;SDS011;18717;48.034;11.186;2023-07-08T17:04:18;16.08;;;14.77;;
32228;SDS011;18717;48.034;11.186;2023-07-08T17:06:46;17.15;;;15.60;;
32228;SDS011;18717;48.034;11.186;2023-07-08T17:09:14;14.90;;;13.90;;
32228;SDS011;18717;48.034;11.186;2023-07-08T17:11:43;15.93;;;14.63;;
32228;SDS011;18717;48.034;11.186;2023-07-08T17:14:11;15.85;;;14.57;;
32228;SDS011;18717;48.034;11.186;2023-07-08T17:16:39;16.85;;;15.30;;
32228;SDS011;18717;48.034;11.186;2023-07-08T17:19:07;16.90;;;15.40;;
32228;SDS011;18717;48.034;11.186;2023-07-08T17:21:36;15.90;;;14.80;;
32228;SDS011;18717;48.034;11.186;2023-07-08T17:24:04;15.90;;;14.70;;
32228;SDS011;18717;48.034;11.186;2023-07-08T17:26:33;16.63;;;15.15;;
32228;SDS011;18717;48.034;11.186;2023-07-08T17:29:02;15.68;;;14.52;;
32228;SDS011;18717;48.034;11.186;2023-07-08T17:31:31;16.17;;;14.63;;
32228;SDS011;18717;48.034;11.186;2023-07-08T17:34:15;15.60;;;14.60;;
32228;SDS011;18717;48.034;11.186;2023-07-08T17:36:46;15.82;;;14.65;;
32228;SDS011;18717;48.034;11.186;2023-07-08T17:39:14;15.98;;;14.80;;
32228;SDS011;18717;48.034;11.186;2023-07-08T17:41:42;15.52;;;14.25;;
32228;SDS011;18717;48.034;11.186;2023-07-08T17:44:16;16.45;;;14.45;;
32228;SDS011;18717;48.034;11.186;2023-07-08T17:46:44;15.10;;;14.00;;
32228;SDS011;18717;48.034;11.186;2023-07-08T17:49:13;15.98;;;14.57;;
32228;SDS011;18717;48.034;11.186;2023-07-08T17:51:41;15.75;;;14.43;;
32228;SDS011;18717;48.034;11.186;2023-07-08T17:54:11;16.95;;;15.30;;
32228;SDS011;18717;48.034;11.186;2023-07-08T17:56:41;16.02;;;14.75;;